Impacts TAF Board INFO
IDs:

KLGA - New York/La Guardia, NY, US

Issued at 0537 UTC 03 Dec 2016
Updated at 0648 UTC 03 Dec 2016
Potential Impact None Slight Moderate High
Time0551Z 03/07Z 03/08Z 03/09Z 03/10Z 03/11Z 03/12Z 03/13Z 03/14Z 03/15Z 03/16Z 03/17Z 03/18Z 03/19Z
Type OBS PRVL PRVL PRVL PRVL PRVL PRVL PRVL PRVL PRVL PRVL PRVL PRVL PRVL
VIS 10 >6 >6 >6 >6 >6 >6 >6 >6 >6 >6 >6 >6 >6
CIG 48 50 50 50 50 50 50 50 40 40 40 40 40 40
Cover OVC BKN BKN BKN BKN BKN BKN BKN BKN BKN BKN BKN BKN BKN
FltCat VFR VFR VFR VFR VFR VFR VFR VFR VFR VFR VFR VFR VFR VFR
WX -- -- -- -- -- -- -- -- -- -- -- -- -- --
WDir 280 280 280 280 280 280 280 280 310 310 310 310 310 310
WSpd 12 14 14 14 14 14 14 14 16 16 16 16 16 22
WGst 19 21 21 21 21 21 21 21 27 27 27 27 27 30

Raw TAF
KLGA 030537Z 0306/0406 28014G21KT P6SM BKN050
  FM031400 31016G27KT P6SM BKN040
  FM031900 31022G30KT P6SM BKN040
  FM032200 31018G26KT P6SM SCT040
  FM040500 32013KT P6SM FEW030


Raw METAR
KLGA 030551Z 28012G19KT 10SM BKN048 OVC055 08/M01 A2990 RMK AO2 SLP126 T00781011 10094 20078 50001 $
KLGA 030451Z 27009KT 10SM BKN050 OVC060 08/M01 A2991 RMK AO2 SLP128 T00781011 401170061 $
KLGA 030351Z 26015G22KT 10SM BKN090 OVC250 08/M02 A2991 RMK AO2 SLP126 T00781017 $

METAR Board
Radar Display
Forecast Discussion